sensor_id;sensor_type;location;lat;lon;timestamp;P1;durP1;ratioP1;P2;durP2;ratioP2
40717;SDS011;26405;51.850;-2.246;2023-04-09T00:02:06;9.45;;;4.15;;
40717;SDS011;26405;51.850;-2.246;2023-04-09T00:04:33;9.95;;;4.60;;
40717;SDS011;26405;51.850;-2.246;2023-04-09T00:06:58;10.60;;;4.45;;
40717;SDS011;26405;51.850;-2.246;2023-04-09T00:09:23;13.07;;;4.83;;
40717;SDS011;26405;51.850;-2.246;2023-04-09T00:11:48;10.73;;;4.70;;
40717;SDS011;26405;51.850;-2.246;2023-04-09T00:14:14;12.70;;;4.82;;
40717;SDS011;26405;51.850;-2.246;2023-04-09T00:16:39;12.30;;;4.90;;
40717;SDS011;26405;51.850;-2.246;2023-04-09T00:19:05;13.35;;;5.07;;
40717;SDS011;26405;51.850;-2.246;2023-04-09T00:21:30;11.43;;;4.82;;
40717;SDS011;26405;51.850;-2.246;2023-04-09T00:23:56;10.27;;;4.50;;
40717;SDS011;26405;51.850;-2.246;2023-04-09T00:26:21;11.30;;;4.72;;
40717;SDS011;26405;51.850;-2.246;2023-04-09T00:28:46;13.82;;;5.07;;
40717;SDS011;26405;51.850;-2.246;2023-04-09T00:31:12;12.55;;;4.68;;
40717;SDS011;26405;51.850;-2.246;2023-04-09T00:33:37;13.48;;;4.95;;
40717;SDS011;26405;51.850;-2.246;2023-04-09T00:36:02;8.73;;;4.30;;
40717;SDS011;26405;51.850;-2.246;2023-04-09T00:38:28;11.68;;;4.85;;
40717;SDS011;26405;51.850;-2.246;2023-04-09T00:40:53;10.70;;;5.18;;
40717;SDS011;26405;51.850;-2.246;2023-04-09T00:43:18;10.57;;;4.78;;
40717;SDS011;26405;51.850;-2.246;2023-04-09T00:45:44;10.98;;;5.07;;
40717;SDS011;26405;51.850;-2.246;2023-04-09T00:48:10;12.18;;;4.88;;
40717;SDS011;26405;51.850;-2.246;2023-04-09T00:50:36;12.73;;;5.00;;
40717;SDS011;26405;51.850;-2.246;2023-04-09T00:53:01;11.13;;;4.72;;
40717;SDS011;26405;51.850;-2.246;2023-04-09T00:55:26;14.80;;;5.20;;
40717;SDS011;26405;51.850;-2.246;2023-04-09T00:57:52;14.48;;;4.65;;
40717;SDS011;26405;51.850;-2.246;2023-04-09T01:00:17;12.27;;;4.97;;
40717;SDS011;26405;51.850;-2.246;2023-04-09T01:02:42;11.73;;;5.03;;
40717;SDS011;26405;51.850;-2.246;2023-04-09T01:05:08;14.00;;;5.32;;
40717;SDS011;26405;51.850;-2.246;2023-04-09T01:07:40;12.65;;;4.68;;
40717;SDS011;26405;51.850;-2.246;2023-04-09T01:12:47;14.20;;;5.50;;
40717;SDS011;26405;51.850;-2.246;2023-04-09T01:15:21;9.40;;;5.03;;
40717;SDS011;26405;51.850;-2.246;2023-04-09T01:17:52;12.10;;;5.20;;
40717;SDS011;26405;51.850;-2.246;2023-04-09T01:25:29;11.95;;;5.00;;
40717;SDS011;26405;51.850;-2.246;2023-04-09T01:28:13;12.05;;;5.20;;
40717;SDS011;26405;51.850;-2.246;2023-04-09T01:30:44;10.63;;;5.00;;
40717;SDS011;26405;51.850;-2.246;2023-04-09T01:33:11;12.13;;;5.53;;
40717;SDS011;26405;51.850;-2.246;2023-04-09T01:35:37;10.82;;;5.40;;
40717;SDS011;26405;51.850;-2.246;2023-04-09T01:38:04;11.02;;;5.10;;
40717;SDS011;26405;51.850;-2.246;2023-04-09T01:40:30;11.27;;;5.18;;
40717;SDS011;26405;51.850;-2.246;2023-04-09T01:42:55;12.03;;;5.53;;
40717;SDS011;26405;51.850;-2.246;2023-04-09T01:45:20;13.73;;;5.80;;
40717;SDS011;26405;51.850;-2.246;2023-04-09T01:47:46;12.27;;;5.50;;
40717;SDS011;26405;51.850;-2.246;2023-04-09T01:50:12;14.90;;;6.38;;
40717;SDS011;26405;51.850;-2.246;2023-04-09T01:52:37;11.27;;;5.72;;
40717;SDS011;26405;51.850;-2.246;2023-04-09T01:55:02;13.32;;;5.63;;
40717;SDS011;26405;51.850;-2.246;2023-04-09T01:57:28;12.48;;;5.53;;
40717;SDS011;26405;51.850;-2.246;2023-04-09T01:59:54;14.70;;;5.70;;
40717;SDS011;26405;51.850;-2.246;2023-04-09T02:02:22;12.57;;;5.97;;
40717;SDS011;26405;51.850;-2.246;2023-04-09T02:04:50;12.13;;;5.25;;
40717;SDS011;26405;51.850;-2.246;2023-04-09T02:07:22;11.73;;;5.25;;
40717;SDS011;26405;51.850;-2.246;2023-04-09T02:09:48;11.77;;;5.55;;
40717;SDS011;26405;51.850;-2.246;2023-04-09T02:14:40;12.98;;;5.93;;
40717;SDS011;26405;51.850;-2.246;2023-04-09T02:17:06;14.10;;;5.90;;
40717;SDS011;26405;51.850;-2.246;2023-04-09T02:19:38;14.57;;;7.15;;
40717;SDS011;26405;51.850;-2.246;2023-04-09T02:22:04;12.95;;;5.88;;
40717;SDS011;26405;51.850;-2.246;2023-04-09T02:24:30;13.25;;;5.85;;
40717;SDS011;26405;51.850;-2.246;2023-04-09T02:26:55;16.33;;;5.97;;
40717;SDS011;26405;51.850;-2.246;2023-04-09T02:29:20;12.43;;;5.78;;
40717;SDS011;26405;51.850;-2.246;2023-04-09T02:31:45;12.50;;;5.93;;
40717;SDS011;26405;51.850;-2.246;2023-04-09T02:34:11;14.18;;;5.95;;
40717;SDS011;26405;51.850;-2.246;2023-04-09T02:36:36;13.32;;;5.60;;
40717;SDS011;26405;51.850;-2.246;2023-04-09T02:39:01;12.45;;;5.93;;
40717;SDS011;26405;51.850;-2.246;2023-04-09T02:41:31;12.13;;;5.73;;
40717;SDS011;26405;51.850;-2.246;2023-04-09T02:43:59;15.05;;;6.05;;
40717;SDS011;26405;51.850;-2.246;2023-04-09T02:46:24;14.57;;;6.93;;
40717;SDS011;26405;51.850;-2.246;2023-04-09T02:48:52;14.57;;;6.23;;
40717;SDS011;26405;51.850;-2.246;2023-04-09T02:51:17;15.38;;;6.47;;
40717;SDS011;26405;51.850;-2.246;2023-04-09T02:53:42;11.73;;;6.20;;
40717;SDS011;26405;51.850;-2.246;2023-04-09T02:56:09;10.95;;;5.32;;
40717;SDS011;26405;51.850;-2.246;2023-04-09T02:58:35;12.20;;;5.38;;
40717;SDS011;26405;51.850;-2.246;2023-04-09T03:01:00;10.17;;;5.33;;
40717;SDS011;26405;51.850;-2.246;2023-04-09T03:03:25;9.55;;;5.60;;
40717;SDS011;26405;51.850;-2.246;2023-04-09T03:05:50;12.83;;;6.23;;
40717;SDS011;26405;51.850;-2.246;2023-04-09T03:08:15;11.97;;;6.00;;
40717;SDS011;26405;51.850;-2.246;2023-04-09T03:10:41;15.38;;;6.88;;
40717;SDS011;26405;51.850;-2.246;2023-04-09T03:13:06;17.90;;;6.32;;
40717;SDS011;26405;51.850;-2.246;2023-04-09T03:15:31;12.88;;;6.18;;
40717;SDS011;26405;51.850;-2.246;2023-04-09T03:17:57;13.30;;;5.90;;
40717;SDS011;26405;51.850;-2.246;2023-04-09T03:20:22;11.10;;;5.75;;
40717;SDS011;26405;51.850;-2.246;2023-04-09T03:22:47;14.85;;;6.60;;
40717;SDS011;26405;51.850;-2.246;2023-04-09T03:25:15;12.63;;;5.82;;
40717;SDS011;26405;51.850;-2.246;2023-04-09T03:27:43;14.65;;;6.47;;
40717;SDS011;26405;51.850;-2.246;2023-04-09T03:30:08;13.15;;;6.40;;
40717;SDS011;26405;51.850;-2.246;2023-04-09T03:32:34;13.18;;;6.22;;
40717;SDS011;26405;51.850;-2.246;2023-04-09T03:34:59;15.77;;;6.60;;
40717;SDS011;26405;51.850;-2.246;2023-04-09T03:37:24;14.90;;;7.30;;
40717;SDS011;26405;51.850;-2.246;2023-04-09T03:39:49;17.65;;;7.28;;
40717;SDS011;26405;51.850;-2.246;2023-04-09T03:42:15;14.63;;;6.85;;
40717;SDS011;26405;51.850;-2.246;2023-04-09T03:44:40;13.60;;;6.18;;
40717;SDS011;26405;51.850;-2.246;2023-04-09T03:47:06;14.30;;;6.57;;
40717;SDS011;26405;51.850;-2.246;2023-04-09T03:49:33;12.50;;;6.18;;
40717;SDS011;26405;51.850;-2.246;2023-04-09T03:54:23;13.40;;;6.53;;
40717;SDS011;26405;51.850;-2.246;2023-04-09T03:56:48;15.25;;;6.53;;
40717;SDS011;26405;51.850;-2.246;2023-04-09T03:59:14;14.05;;;6.05;;
40717;SDS011;26405;51.850;-2.246;2023-04-09T04:01:39;13.50;;;6.60;;
40717;SDS011;26405;51.850;-2.246;2023-04-09T04:04:05;11.95;;;5.95;;
40717;SDS011;26405;51.850;-2.246;2023-04-09T04:06:32;12.05;;;5.93;;
40717;SDS011;26405;51.850;-2.246;2023-04-09T04:08:57;15.57;;;6.70;;
40717;SDS011;26405;51.850;-2.246;2023-04-09T04:11:22;14.70;;;7.28;;
40717;SDS011;26405;51.850;-2.246;2023-04-09T04:13:47;13.27;;;6.37;;
40717;SDS011;26405;51.850;-2.246;2023-04-09T04:16:12;12.15;;;6.05;;
40717;SDS011;26405;51.850;-2.246;2023-04-09T04:18:38;10.33;;;5.93;;
40717;SDS011;26405;51.850;-2.246;2023-04-09T04:21:03;12.18;;;6.28;;
40717;SDS011;26405;51.850;-2.246;2023-04-09T04:23:28;13.48;;;6.32;;
40717;SDS011;26405;51.850;-2.246;2023-04-09T04:25:53;15.20;;;6.50;;
40717;SDS011;26405;51.850;-2.246;2023-04-09T04:28:21;13.65;;;6.32;;
40717;SDS011;26405;51.850;-2.246;2023-04-09T04:30:46;13.20;;;6.05;;
40717;SDS011;26405;51.850;-2.246;2023-04-09T04:33:11;10.52;;;5.63;;
40717;SDS011;26405;51.850;-2.246;2023-04-09T04:35:36;13.00;;;6.07;;
40717;SDS011;26405;51.850;-2.246;2023-04-09T04:38:02;14.25;;;6.22;;
40717;SDS011;26405;51.850;-2.246;2023-04-09T04:40:27;16.70;;;5.82;;
40717;SDS011;26405;51.850;-2.246;2023-04-09T04:42:52;12.05;;;6.00;;
40717;SDS011;26405;51.850;-2.246;2023-04-09T04:45:18;12.57;;;5.68;;
40717;SDS011;26405;51.850;-2.246;2023-04-09T04:47:43;11.37;;;5.13;;
40717;SDS011;26405;51.850;-2.246;2023-04-09T04:50:08;11.15;;;5.63;;
40717;SDS011;26405;51.850;-2.246;2023-04-09T04:52:34;12.73;;;5.93;;
40717;SDS011;26405;51.850;-2.246;2023-04-09T04:55:00;11.13;;;5.30;;
40717;SDS011;26405;51.850;-2.246;2023-04-09T04:57:25;13.00;;;6.03;;
40717;SDS011;26405;51.850;-2.246;2023-04-09T04:59:50;13.10;;;5.38;;
40717;SDS011;26405;51.850;-2.246;2023-04-09T05:02:15;10.57;;;5.43;;
40717;SDS011;26405;51.850;-2.246;2023-04-09T05:04:40;14.20;;;5.40;;
40717;SDS011;26405;51.850;-2.246;2023-04-09T05:07:06;15.57;;;6.50;;
40717;SDS011;26405;51.850;-2.246;2023-04-09T05:09:31;14.67;;;6.53;;
40717;SDS011;26405;51.850;-2.246;2023-04-09T05:11:56;16.10;;;7.57;;
40717;SDS011;26405;51.850;-2.246;2023-04-09T05:14:21;14.93;;;7.30;;
40717;SDS011;26405;51.850;-2.246;2023-04-09T05:16:48;15.50;;;7.53;;
40717;SDS011;26405;51.850;-2.246;2023-04-09T05:19:13;14.32;;;6.80;;
40717;SDS011;26405;51.850;-2.246;2023-04-09T05:21:38;16.38;;;7.40;;
40717;SDS011;26405;51.850;-2.246;2023-04-09T05:24:03;16.77;;;7.67;;
40717;SDS011;26405;51.850;-2.246;2023-04-09T05:26:29;12.75;;;6.32;;
40717;SDS011;26405;51.850;-2.246;2023-04-09T05:28:54;15.70;;;7.20;;
40717;SDS011;26405;51.850;-2.246;2023-04-09T05:31:19;15.63;;;7.88;;
40717;SDS011;26405;51.850;-2.246;2023-04-09T05:33:45;15.73;;;7.70;;
40717;SDS011;26405;51.850;-2.246;2023-04-09T05:36:14;16.65;;;7.80;;
40717;SDS011;26405;51.850;-2.246;2023-04-09T05:38:39;13.07;;;7.00;;
40717;SDS011;26405;51.850;-2.246;2023-04-09T05:41:04;14.63;;;7.13;;
40717;SDS011;26405;51.850;-2.246;2023-04-09T05:43:30;16.27;;;7.63;;
40717;SDS011;26405;51.850;-2.246;2023-04-09T05:45:55;16.27;;;8.20;;
40717;SDS011;26405;51.850;-2.246;2023-04-09T05:48:20;16.73;;;7.65;;
40717;SDS011;26405;51.850;-2.246;2023-04-09T05:50:52;16.53;;;8.00;;
40717;SDS011;26405;51.850;-2.246;2023-04-09T05:53:17;16.25;;;7.63;;
40717;SDS011;26405;51.850;-2.246;2023-04-09T05:55:43;14.98;;;6.97;;
40717;SDS011;26405;51.850;-2.246;2023-04-09T05:58:08;16.58;;;7.55;;
40717;SDS011;26405;51.850;-2.246;2023-04-09T06:00:34;17.03;;;8.23;;
40717;SDS011;26405;51.850;-2.246;2023-04-09T06:02:59;18.00;;;8.73;;
40717;SDS011;26405;51.850;-2.246;2023-04-09T06:05:24;18.33;;;8.35;;
40717;SDS011;26405;51.850;-2.246;2023-04-09T06:07:49;18.40;;;8.57;;
40717;SDS011;26405;51.850;-2.246;2023-04-09T06:10:15;16.27;;;8.20;;
40717;SDS011;26405;51.850;-2.246;2023-04-09T06:12:40;14.73;;;7.38;;
40717;SDS011;26405;51.850;-2.246;2023-04-09T06:15:05;17.88;;;8.15;;
40717;SDS011;26405;51.850;-2.246;2023-04-09T06:17:31;16.85;;;8.35;;
40717;SDS011;26405;51.850;-2.246;2023-04-09T06:19:56;15.30;;;7.57;;
40717;SDS011;26405;51.850;-2.246;2023-04-09T06:22:21;17.30;;;8.32;;
40717;SDS011;26405;51.850;-2.246;2023-04-09T06:24:46;16.13;;;7.37;;
40717;SDS011;26405;51.850;-2.246;2023-04-09T06:27:12;16.38;;;8.10;;
40717;SDS011;26405;51.850;-2.246;2023-04-09T06:29:37;18.47;;;8.67;;
40717;SDS011;26405;51.850;-2.246;2023-04-09T06:32:02;18.57;;;8.90;;
40717;SDS011;26405;51.850;-2.246;2023-04-09T06:34:28;18.88;;;9.32;;
40717;SDS011;26405;51.850;-2.246;2023-04-09T06:36:53;17.50;;;8.40;;
40717;SDS011;26405;51.850;-2.246;2023-04-09T06:39:18;16.97;;;8.30;;
40717;SDS011;26405;51.850;-2.246;2023-04-09T06:41:44;18.00;;;9.18;;
40717;SDS011;26405;51.850;-2.246;2023-04-09T06:44:10;16.92;;;8.93;;
40717;SDS011;26405;51.850;-2.246;2023-04-09T06:46:35;17.95;;;9.00;;
40717;SDS011;26405;51.850;-2.246;2023-04-09T06:49:01;18.83;;;9.10;;
40717;SDS011;26405;51.850;-2.246;2023-04-09T06:51:26;17.80;;;9.32;;
40717;SDS011;26405;51.850;-2.246;2023-04-09T06:53:51;19.10;;;9.90;;
40717;SDS011;26405;51.850;-2.246;2023-04-09T06:56:16;20.57;;;10.33;;
40717;SDS011;26405;51.850;-2.246;2023-04-09T06:58:41;20.33;;;10.60;;
40717;SDS011;26405;51.850;-2.246;2023-04-09T07:01:07;21.75;;;10.93;;
40717;SDS011;26405;51.850;-2.246;2023-04-09T07:03:32;23.38;;;12.15;;
40717;SDS011;26405;51.850;-2.246;2023-04-09T07:05:58;22.60;;;12.05;;
40717;SDS011;26405;51.850;-2.246;2023-04-09T07:08:23;21.50;;;11.88;;
40717;SDS011;26405;51.850;-2.246;2023-04-09T07:10:48;21.10;;;11.95;;
40717;SDS011;26405;51.850;-2.246;2023-04-09T07:13:14;20.27;;;11.25;;
40717;SDS011;26405;51.850;-2.246;2023-04-09T07:15:39;21.90;;;12.60;;
40717;SDS011;26405;51.850;-2.246;2023-04-09T07:18:04;22.77;;;12.27;;
40717;SDS011;26405;51.850;-2.246;2023-04-09T07:20:30;22.73;;;12.68;;
40717;SDS011;26405;51.850;-2.246;2023-04-09T07:22:55;21.55;;;12.35;;
40717;SDS011;26405;51.850;-2.246;2023-04-09T07:25:23;22.80;;;13.77;;
40717;SDS011;26405;51.850;-2.246;2023-04-09T07:27:48;24.27;;;13.98;;
40717;SDS011;26405;51.850;-2.246;2023-04-09T07:30:13;22.50;;;12.97;;
40717;SDS011;26405;51.850;-2.246;2023-04-09T07:32:39;22.83;;;14.20;;
40717;SDS011;26405;51.850;-2.246;2023-04-09T07:35:07;23.83;;;14.27;;
40717;SDS011;26405;51.850;-2.246;2023-04-09T07:37:33;23.42;;;14.25;;
40717;SDS011;26405;51.850;-2.246;2023-04-09T07:39:59;23.90;;;15.02;;
40717;SDS011;26405;51.850;-2.246;2023-04-09T07:42:25;25.67;;;16.30;;
40717;SDS011;26405;51.850;-2.246;2023-04-09T07:44:51;24.08;;;14.80;;
40717;SDS011;26405;51.850;-2.246;2023-04-09T07:47:16;24.35;;;15.25;;
40717;SDS011;26405;51.850;-2.246;2023-04-09T07:49:41;23.60;;;15.00;;
40717;SDS011;26405;51.850;-2.246;2023-04-09T07:52:06;23.17;;;14.57;;
40717;SDS011;26405;51.850;-2.246;2023-04-09T07:54:32;24.52;;;14.52;;
40717;SDS011;26405;51.850;-2.246;2023-04-09T07:56:58;24.88;;;15.00;;
40717;SDS011;26405;51.850;-2.246;2023-04-09T07:59:23;25.00;;;14.38;;
40717;SDS011;26405;51.850;-2.246;2023-04-09T08:01:48;25.40;;;16.13;;
40717;SDS011;26405;51.850;-2.246;2023-04-09T08:04:14;27.98;;;16.95;;
40717;SDS011;26405;51.850;-2.246;2023-04-09T08:06:39;24.98;;;15.18;;
40717;SDS011;26405;51.850;-2.246;2023-04-09T08:09:05;26.48;;;16.88;;
40717;SDS011;26405;51.850;-2.246;2023-04-09T08:11:30;25.25;;;16.23;;
40717;SDS011;26405;51.850;-2.246;2023-04-09T08:13:56;24.67;;;15.18;;
40717;SDS011;26405;51.850;-2.246;2023-04-09T08:16:21;26.30;;;16.33;;
40717;SDS011;26405;51.850;-2.246;2023-04-09T08:18:48;26.88;;;17.20;;
40717;SDS011;26405;51.850;-2.246;2023-04-09T08:21:14;26.65;;;16.63;;
40717;SDS011;26405;51.850;-2.246;2023-04-09T08:23:39;28.35;;;16.65;;
40717;SDS011;26405;51.850;-2.246;2023-04-09T08:26:04;26.35;;;17.25;;
40717;SDS011;26405;51.850;-2.246;2023-04-09T08:28:30;26.80;;;17.15;;
40717;SDS011;26405;51.850;-2.246;2023-04-09T08:30:55;27.23;;;16.23;;
40717;SDS011;26405;51.850;-2.246;2023-04-09T08:33:20;25.70;;;16.25;;
40717;SDS011;26405;51.850;-2.246;2023-04-09T08:35:45;23.58;;;13.15;;
40717;SDS011;26405;51.850;-2.246;2023-04-09T08:38:11;25.60;;;16.13;;
40717;SDS011;26405;51.850;-2.246;2023-04-09T08:40:36;26.52;;;16.27;;
40717;SDS011;26405;51.850;-2.246;2023-04-09T08:43:03;25.83;;;15.55;;
40717;SDS011;26405;51.850;-2.246;2023-04-09T08:45:28;26.35;;;16.00;;
40717;SDS011;26405;51.850;-2.246;2023-04-09T08:47:54;27.92;;;17.30;;
40717;SDS011;26405;51.850;-2.246;2023-04-09T08:50:19;25.88;;;15.75;;
40717;SDS011;26405;51.850;-2.246;2023-04-09T08:52:45;24.85;;;15.70;;
40717;SDS011;26405;51.850;-2.246;2023-04-09T08:55:11;25.08;;;15.68;;
40717;SDS011;26405;51.850;-2.246;2023-04-09T08:57:39;26.80;;;15.70;;
40717;SDS011;26405;51.850;-2.246;2023-04-09T09:00:05;29.77;;;17.83;;
40717;SDS011;26405;51.850;-2.246;2023-04-09T09:02:31;25.77;;;15.38;;
40717;SDS011;26405;51.850;-2.246;2023-04-09T09:04:56;28.85;;;17.20;;
40717;SDS011;26405;51.850;-2.246;2023-04-09T09:07:24;26.02;;;15.63;;
40717;SDS011;26405;51.850;-2.246;2023-04-09T09:09:52;27.58;;;16.40;;
40717;SDS011;26405;51.850;-2.246;2023-04-09T09:12:30;25.47;;;15.90;;
40717;SDS011;26405;51.850;-2.246;2023-04-09T09:14:55;26.90;;;15.63;;
40717;SDS011;26405;51.850;-2.246;2023-04-09T09:17:21;27.45;;;16.40;;
40717;SDS011;26405;51.850;-2.246;2023-04-09T09:19:46;25.58;;;15.60;;
40717;SDS011;26405;51.850;-2.246;2023-04-09T09:22:11;24.90;;;15.17;;
40717;SDS011;26405;51.850;-2.246;2023-04-09T09:24:50;25.75;;;15.63;;
40717;SDS011;26405;51.850;-2.246;2023-04-09T09:27:35;25.52;;;16.08;;
40717;SDS011;26405;51.850;-2.246;2023-04-09T09:30:03;24.35;;;14.65;;
40717;SDS011;26405;51.850;-2.246;2023-04-09T09:32:30;25.52;;;14.93;;
40717;SDS011;26405;51.850;-2.246;2023-04-09T09:35:02;25.25;;;15.18;;
40717;SDS011;26405;51.850;-2.246;2023-04-09T09:37:28;25.85;;;14.68;;
40717;SDS011;26405;51.850;-2.246;2023-04-09T09:39:54;24.95;;;15.25;;
40717;SDS011;26405;51.850;-2.246;2023-04-09T09:42:19;24.55;;;14.90;;
40717;SDS011;26405;51.850;-2.246;2023-04-09T09:44:45;24.83;;;15.02;;
40717;SDS011;26405;51.850;-2.246;2023-04-09T09:47:11;24.50;;;15.10;;
40717;SDS011;26405;51.850;-2.246;2023-04-09T09:49:39;25.02;;;15.48;;
40717;SDS011;26405;51.850;-2.246;2023-04-09T09:52:09;26.13;;;14.70;;
40717;SDS011;26405;51.850;-2.246;2023-04-09T09:54:41;27.40;;;15.85;;
40717;SDS011;26405;51.850;-2.246;2023-04-09T09:57:08;26.60;;;14.88;;
40717;SDS011;26405;51.850;-2.246;2023-04-09T10:01:59;24.07;;;14.07;;
40717;SDS011;26405;51.850;-2.246;2023-04-09T10:04:28;27.13;;;15.38;;
40717;SDS011;26405;51.850;-2.246;2023-04-09T10:06:54;26.87;;;15.03;;
40717;SDS011;26405;51.850;-2.246;2023-04-09T10:09:20;25.83;;;15.30;;
40717;SDS011;26405;51.850;-2.246;2023-04-09T10:11:46;24.35;;;14.10;;
40717;SDS011;26405;51.850;-2.246;2023-04-09T10:14:12;24.45;;;14.68;;
40717;SDS011;26405;51.850;-2.246;2023-04-09T10:16:38;25.70;;;15.00;;
40717;SDS011;26405;51.850;-2.246;2023-04-09T10:19:04;24.55;;;15.65;;
40717;SDS011;26405;51.850;-2.246;2023-04-09T10:22:06;23.00;;;14.82;;
40717;SDS011;26405;51.850;-2.246;2023-04-09T10:24:23;24.65;;;15.40;;
40717;SDS011;26405;51.850;-2.246;2023-04-09T10:26:50;24.33;;;14.73;;
40717;SDS011;26405;51.850;-2.246;2023-04-09T10:29:21;25.50;;;16.27;;
40717;SDS011;26405;51.850;-2.246;2023-04-09T10:32:04;24.52;;;15.20;;
40717;SDS011;26405;51.850;-2.246;2023-04-09T10:34:40;25.00;;;15.77;;
40717;SDS011;26405;51.850;-2.246;2023-04-09T10:37:12;26.83;;;16.67;;
40717;SDS011;26405;51.850;-2.246;2023-04-09T10:39:47;25.27;;;14.95;;
40717;SDS011;26405;51.850;-2.246;2023-04-09T10:42:21;24.73;;;14.67;;
40717;SDS011;26405;51.850;-2.246;2023-04-09T10:45:10;24.38;;;14.95;;
40717;SDS011;26405;51.850;-2.246;2023-04-09T10:47:35;27.27;;;16.73;;
40717;SDS011;26405;51.850;-2.246;2023-04-09T10:50:20;24.00;;;14.73;;
40717;SDS011;26405;51.850;-2.246;2023-04-09T10:52:45;23.17;;;14.10;;
40717;SDS011;26405;51.850;-2.246;2023-04-09T10:55:47;24.08;;;14.02;;
40717;SDS011;26405;51.850;-2.246;2023-04-09T10:58:03;26.58;;;14.60;;
40717;SDS011;26405;51.850;-2.246;2023-04-09T11:00:28;25.55;;;14.57;;
40717;SDS011;26405;51.850;-2.246;2023-04-09T11:03:17;24.37;;;15.43;;
40717;SDS011;26405;51.850;-2.246;2023-04-09T11:05:39;24.70;;;14.87;;
40717;SDS011;26405;51.850;-2.246;2023-04-09T11:08:10;24.35;;;14.60;;
40717;SDS011;26405;51.850;-2.246;2023-04-09T11:10:36;26.83;;;15.55;;
40717;SDS011;26405;51.850;-2.246;2023-04-09T11:13:02;23.47;;;14.33;;
40717;SDS011;26405;51.850;-2.246;2023-04-09T11:15:28;24.60;;;14.97;;
40717;SDS011;26405;51.850;-2.246;2023-04-09T11:17:53;24.37;;;15.00;;
40717;SDS011;26405;51.850;-2.246;2023-04-09T11:20:23;24.80;;;13.70;;
40717;SDS011;26405;51.850;-2.246;2023-04-09T11:22:49;24.25;;;13.70;;
40717;SDS011;26405;51.850;-2.246;2023-04-09T11:25:19;21.77;;;12.38;;
40717;SDS011;26405;51.850;-2.246;2023-04-09T11:27:44;23.88;;;13.82;;
40717;SDS011;26405;51.850;-2.246;2023-04-09T11:30:10;22.50;;;14.02;;
40717;SDS011;26405;51.850;-2.246;2023-04-09T11:32:36;24.10;;;14.05;;
40717;SDS011;26405;51.850;-2.246;2023-04-09T11:35:01;21.80;;;12.98;;
40717;SDS011;26405;51.850;-2.246;2023-04-09T11:37:27;22.98;;;14.48;;
40717;SDS011;26405;51.850;-2.246;2023-04-09T11:39:52;20.63;;;11.80;;
40717;SDS011;26405;51.850;-2.246;2023-04-09T11:42:19;24.05;;;13.10;;
40717;SDS011;26405;51.850;-2.246;2023-04-09T11:47:11;24.08;;;12.77;;
40717;SDS011;26405;51.850;-2.246;2023-04-09T11:49:37;20.40;;;11.45;;
40717;SDS011;26405;51.850;-2.246;2023-04-09T11:52:02;22.77;;;12.73;;
40717;SDS011;26405;51.850;-2.246;2023-04-09T11:54:34;21.47;;;11.47;;
40717;SDS011;26405;51.850;-2.246;2023-04-09T11:57:02;18.58;;;10.07;;
40717;SDS011;26405;51.850;-2.246;2023-04-09T11:59:27;19.52;;;10.48;;
40717;SDS011;26405;51.850;-2.246;2023-04-09T12:01:52;20.07;;;10.40;;
40717;SDS011;26405;51.850;-2.246;2023-04-09T12:04:18;19.70;;;10.57;;
40717;SDS011;26405;51.850;-2.246;2023-04-09T12:06:43;20.17;;;10.20;;
40717;SDS011;26405;51.850;-2.246;2023-04-09T12:09:09;19.30;;;10.03;;
40717;SDS011;26405;51.850;-2.246;2023-04-09T12:11:37;19.88;;;10.25;;
40717;SDS011;26405;51.850;-2.246;2023-04-09T12:14:03;19.87;;;10.33;;
40717;SDS011;26405;51.850;-2.246;2023-04-09T12:16:32;21.58;;;9.73;;
40717;SDS011;26405;51.850;-2.246;2023-04-09T12:19:07;21.63;;;11.07;;
40717;SDS011;26405;51.850;-2.246;2023-04-09T12:21:46;20.90;;;10.57;;
40717;SDS011;26405;51.850;-2.246;2023-04-09T12:24:15;21.23;;;10.73;;
40717;SDS011;26405;51.850;-2.246;2023-04-09T12:26:41;20.70;;;10.77;;
40717;SDS011;26405;51.850;-2.246;2023-04-09T12:29:06;19.33;;;9.47;;
40717;SDS011;26405;51.850;-2.246;2023-04-09T12:31:32;19.93;;;10.30;;
40717;SDS011;26405;51.850;-2.246;2023-04-09T12:33:57;20.13;;;10.33;;
40717;SDS011;26405;51.850;-2.246;2023-04-09T12:36:22;20.07;;;10.10;;
40717;SDS011;26405;51.850;-2.246;2023-04-09T12:38:48;20.17;;;10.10;;
40717;SDS011;26405;51.850;-2.246;2023-04-09T12:41:14;19.40;;;10.20;;
40717;SDS011;26405;51.850;-2.246;2023-04-09T12:43:39;19.30;;;10.17;;
40717;SDS011;26405;51.850;-2.246;2023-04-09T12:46:07;21.02;;;10.35;;
40717;SDS011;26405;51.850;-2.246;2023-04-09T12:48:32;18.30;;;8.87;;
40717;SDS011;26405;51.850;-2.246;2023-04-09T12:50:57;17.93;;;8.90;;
40717;SDS011;26405;51.850;-2.246;2023-04-09T12:53:23;18.53;;;8.00;;
40717;SDS011;26405;51.850;-2.246;2023-04-09T12:55:48;19.83;;;7.83;;
40717;SDS011;26405;51.850;-2.246;2023-04-09T12:58:13;16.43;;;7.90;;
40717;SDS011;26405;51.850;-2.246;2023-04-09T13:00:38;17.43;;;8.27;;
40717;SDS011;26405;51.850;-2.246;2023-04-09T13:03:04;15.60;;;7.50;;
40717;SDS011;26405;51.850;-2.246;2023-04-09T13:05:29;16.40;;;6.80;;
40717;SDS011;26405;51.850;-2.246;2023-04-09T13:07:59;21.83;;;7.88;;
40717;SDS011;26405;51.850;-2.246;2023-04-09T13:10:24;16.27;;;6.80;;
40717;SDS011;26405;51.850;-2.246;2023-04-09T13:12:50;14.90;;;7.07;;
40717;SDS011;26405;51.850;-2.246;2023-04-09T13:15:15;18.00;;;7.13;;
40717;SDS011;26405;51.850;-2.246;2023-04-09T13:17:40;19.53;;;7.83;;
40717;SDS011;26405;51.850;-2.246;2023-04-09T13:20:06;21.47;;;9.77;;
40717;SDS011;26405;51.850;-2.246;2023-04-09T13:22:31;18.27;;;7.93;;
40717;SDS011;26405;51.850;-2.246;2023-04-09T13:24:56;18.97;;;7.50;;
40717;SDS011;26405;51.850;-2.246;2023-04-09T13:27:22;12.73;;;7.00;;
40717;SDS011;26405;51.850;-2.246;2023-04-09T13:29:47;14.97;;;6.90;;
40717;SDS011;26405;51.850;-2.246;2023-04-09T13:32:12;14.23;;;6.13;;
40717;SDS011;26405;51.850;-2.246;2023-04-09T13:34:38;12.97;;;5.20;;
40717;SDS011;26405;51.850;-2.246;2023-04-09T13:37:03;13.33;;;5.07;;
40717;SDS011;26405;51.850;-2.246;2023-04-09T13:39:28;11.30;;;4.80;;
40717;SDS011;26405;51.850;-2.246;2023-04-09T13:41:54;12.90;;;4.67;;
40717;SDS011;26405;51.850;-2.246;2023-04-09T13:44:20;11.93;;;4.80;;
40717;SDS011;26405;51.850;-2.246;2023-04-09T13:46:45;11.93;;;4.93;;
40717;SDS011;26405;51.850;-2.246;2023-04-09T13:49:10;10.13;;;4.43;;
40717;SDS011;26405;51.850;-2.246;2023-04-09T13:51:36;16.10;;;4.90;;
40717;SDS011;26405;51.850;-2.246;2023-04-09T13:54:01;10.43;;;4.40;;
40717;SDS011;26405;51.850;-2.246;2023-04-09T13:56:27;9.23;;;4.10;;
40717;SDS011;26405;51.850;-2.246;2023-04-09T13:58:52;10.23;;;4.53;;
40717;SDS011;26405;51.850;-2.246;2023-04-09T14:01:17;8.30;;;4.37;;
40717;SDS011;26405;51.850;-2.246;2023-04-09T14:03:43;8.00;;;3.87;;
40717;SDS011;26405;51.850;-2.246;2023-04-09T14:06:08;8.27;;;4.00;;
40717;SDS011;26405;51.850;-2.246;2023-04-09T14:08:34;14.13;;;4.33;;
40717;SDS011;26405;51.850;-2.246;2023-04-09T14:10:59;11.10;;;4.22;;
40717;SDS011;26405;51.850;-2.246;2023-04-09T14:13:24;10.93;;;4.10;;
40717;SDS011;26405;51.850;-2.246;2023-04-09T14:15:50;12.17;;;4.17;;
40717;SDS011;26405;51.850;-2.246;2023-04-09T14:18:15;11.10;;;4.30;;
40717;SDS011;26405;51.850;-2.246;2023-04-09T14:20:40;12.63;;;5.30;;
40717;SDS011;26405;51.850;-2.246;2023-04-09T14:23:06;8.77;;;4.00;;
40717;SDS011;26405;51.850;-2.246;2023-04-09T14:25:31;10.57;;;4.27;;
40717;SDS011;26405;51.850;-2.246;2023-04-09T14:27:56;12.57;;;3.97;;
40717;SDS011;26405;51.850;-2.246;2023-04-09T14:30:21;12.70;;;4.30;;